createdAt,value
2023-05-09T00:00:34.091Z,15.05
2023-05-09T00:03:06.098Z,15.01
2023-05-09T00:05:36.650Z,14.98
2023-05-09T00:08:08.011Z,14.97
2023-05-09T00:10:38.577Z,14.92
2023-05-09T00:13:12.368Z,14.90
2023-05-09T00:15:44.484Z,14.89
2023-05-09T00:18:15.152Z,14.86
2023-05-09T00:20:45.726Z,14.85
2023-05-09T00:23:16.765Z,14.84
2023-05-09T00:25:47.274Z,14.81
2023-05-09T00:28:20.704Z,14.81
2023-05-09T00:30:51.251Z,14.77
2023-05-09T00:33:22.173Z,14.75
2023-05-09T00:35:52.650Z,14.73
2023-05-09T00:38:23.182Z,14.71
2023-05-09T00:40:53.769Z,14.68
2023-05-09T00:43:27.174Z,14.68
2023-05-09T00:45:58.080Z,14.62
2023-05-09T00:48:28.557Z,14.56
2023-05-09T00:50:59.285Z,14.51
2023-05-09T00:53:30.846Z,14.43
2023-05-09T00:56:03.292Z,14.39
2023-05-09T00:58:36.399Z,14.35
2023-05-09T01:01:06.906Z,14.36
2023-05-09T01:03:38.911Z,14.35
2023-05-09T01:06:17.944Z,14.34
2023-05-09T01:08:56.309Z,14.31
2023-05-09T01:11:35.524Z,14.31
2023-05-09T01:14:21.896Z,14.28
2023-05-09T01:16:59.044Z,14.25
2023-05-09T01:19:48.813Z,14.24
2023-05-09T01:22:19.977Z,14.21
2023-05-09T01:25:22.484Z,14.17
2023-05-09T01:28:02.026Z,14.15
2023-05-09T01:30:37.755Z,14.13
2023-05-09T01:33:11.262Z,14.12
2023-05-09T01:35:45.027Z,14.12
2023-05-09T01:38:20.384Z,14.14
2023-05-09T01:40:55.764Z,14.13
2023-05-09T01:43:31.193Z,14.11
2023-05-09T01:46:05.391Z,14.07
2023-05-09T01:48:38.031Z,14.04
2023-05-09T01:51:10.060Z,14.02
2023-05-09T01:53:40.703Z,13.96
2023-05-09T01:56:12.570Z,13.93
2023-05-09T01:58:44.232Z,13.93
2023-05-09T02:01:18.626Z,13.87
2023-05-09T02:03:55.256Z,13.85
2023-05-09T02:06:29.881Z,13.87
2023-05-09T02:09:01.539Z,13.83
2023-05-09T02:11:32.214Z,13.82
2023-05-09T02:14:02.835Z,13.83
2023-05-09T02:16:36.388Z,13.83
2023-05-09T02:19:06.873Z,13.84
2023-05-09T02:21:37.473Z,13.84
2023-05-09T02:24:09.463Z,13.84
2023-05-09T02:26:40.054Z,13.83
2023-05-09T02:29:10.951Z,13.83
2023-05-09T02:31:45.577Z,13.83
2023-05-09T02:34:17.189Z,13.82
2023-05-09T02:36:48.097Z,13.85
2023-05-09T02:39:18.689Z,13.85
2023-05-09T02:41:52.333Z,13.83
2023-05-09T02:44:22.865Z,13.82
2023-05-09T02:46:55.907Z,13.81
2023-05-09T02:49:32.050Z,13.80
2023-05-09T02:52:05.040Z,13.79
2023-05-09T02:54:35.478Z,13.78
2023-05-09T02:57:06.002Z,13.76
2023-05-09T02:59:36.744Z,13.75
2023-05-09T03:02:09.833Z,13.74
2023-05-09T03:04:40.457Z,13.72
2023-05-09T03:07:11.683Z,13.71
2023-05-09T03:09:42.049Z,13.72
2023-05-09T03:12:12.682Z,13.71
2023-05-09T03:14:43.127Z,13.72
2023-05-09T03:17:17.524Z,13.70
2023-05-09T03:19:48.360Z,13.69
2023-05-09T03:22:19.301Z,13.68
2023-05-09T03:25:00.984Z,13.64
2023-05-09T03:27:31.424Z,13.59
2023-05-09T03:30:02.253Z,13.54
2023-05-09T03:32:35.398Z,13.50
2023-05-09T03:35:06.691Z,13.51
2023-05-09T03:37:37.346Z,13.53
2023-05-09T03:40:11.996Z,13.50
2023-05-09T03:42:49.937Z,13.43
2023-05-09T03:45:20.357Z,13.42
2023-05-09T03:47:53.893Z,13.38
2023-05-09T03:50:24.391Z,13.36
2023-05-09T03:52:57.149Z,13.29
2023-05-09T03:55:27.782Z,13.27
2023-05-09T03:57:58.391Z,13.27
2023-05-09T04:00:29.180Z,13.24
2023-05-09T04:03:10.905Z,13.23
2023-05-09T04:05:45.566Z,13.20
2023-05-09T04:08:23.942Z,13.19
2023-05-09T04:10:54.612Z,13.20
2023-05-09T04:13:25.553Z,13.17
2023-05-09T04:15:56.248Z,13.14
2023-05-09T04:18:30.984Z,13.13
2023-05-09T04:21:01.580Z,13.15
2023-05-09T04:23:32.059Z,13.18
2023-05-09T04:26:03.547Z,13.20
2023-05-09T04:28:34.312Z,13.24
2023-05-09T04:31:05.076Z,13.24
2023-05-09T04:33:39.528Z,13.27
2023-05-09T04:36:11.586Z,13.26
2023-05-09T04:38:42.276Z,13.27
2023-05-09T04:41:16.529Z,13.29
2023-05-09T04:43:47.080Z,13.32
2023-05-09T04:46:17.851Z,13.31
2023-05-09T04:48:51.063Z,13.31
2023-05-09T04:51:21.729Z,13.32
2023-05-09T04:53:52.388Z,13.33
2023-05-09T04:56:26.150Z,13.36
2023-05-09T04:58:56.520Z,13.39
2023-05-09T05:01:27.623Z,13.39
2023-05-09T05:04:01.642Z,13.41
2023-05-09T05:06:34.390Z,13.45
2023-05-09T05:09:05.305Z,13.46
2023-05-09T05:11:35.999Z,13.49
2023-05-09T05:14:08.042Z,13.52
2023-05-09T05:16:38.655Z,13.51
2023-05-09T05:19:11.753Z,13.51
2023-05-09T05:21:44.343Z,13.52
2023-05-09T05:24:15.032Z,13.56
2023-05-09T05:26:45.643Z,13.58
2023-05-09T05:29:16.217Z,13.61
2023-05-09T05:31:46.751Z,13.63
2023-05-09T05:34:19.901Z,13.65
2023-05-09T05:36:50.566Z,13.69
2023-05-09T05:39:20.989Z,13.74
2023-05-09T05:41:52.189Z,13.77
2023-05-09T05:44:23.244Z,13.80
2023-05-09T05:46:53.732Z,13.82
2023-05-09T05:49:27.744Z,13.84
2023-05-09T05:51:58.180Z,13.86
2023-05-09T05:54:30.024Z,13.94
2023-05-09T05:57:00.626Z,13.92
2023-05-09T05:59:31.275Z,13.95
2023-05-09T06:02:01.794Z,13.97
2023-05-09T06:04:35.646Z,13.95
2023-05-09T06:07:06.190Z,14.02
2023-05-09T06:09:36.679Z,14.07
2023-05-09T06:12:08.241Z,14.10
2023-05-09T06:14:38.820Z,14.13
2023-05-09T06:17:09.551Z,14.14
2023-05-09T06:19:42.891Z,14.18
2023-05-09T06:22:13.505Z,14.22
2023-05-09T06:24:43.946Z,14.23
2023-05-09T06:27:14.585Z,14.24
2023-05-09T06:29:45.100Z,14.26
2023-05-09T06:32:15.572Z,14.27
2023-05-09T06:34:48.501Z,14.31
2023-05-09T06:37:19.092Z,14.34
2023-05-09T06:39:50.500Z,14.37
2023-05-09T06:42:20.995Z,14.47
2023-05-09T06:44:52.819Z,14.53
2023-05-09T06:47:23.438Z,14.53
2023-05-09T06:49:56.541Z,14.59
2023-05-09T06:52:27.156Z,14.60
2023-05-09T06:54:57.664Z,14.64
2023-05-09T06:57:28.448Z,14.63
2023-05-09T06:59:59.003Z,14.64
2023-05-09T07:02:29.762Z,14.63
2023-05-09T07:05:02.771Z,14.64
2023-05-09T07:07:33.309Z,14.74
2023-05-09T07:10:11.141Z,14.75
2023-05-09T07:12:42.291Z,14.91
2023-05-09T07:15:15.571Z,15.04
2023-05-09T07:17:51.037Z,15.08
2023-05-09T07:20:24.580Z,15.20
2023-05-09T07:22:55.301Z,15.26
2023-05-09T07:25:26.079Z,15.29
2023-05-09T07:27:56.464Z,15.32
2023-05-09T07:30:27.150Z,15.34
2023-05-09T07:32:57.688Z,15.28
2023-05-09T07:35:30.890Z,15.36
2023-05-09T07:38:01.243Z,15.34
2023-05-09T07:40:32.064Z,15.45
2023-05-09T07:43:02.704Z,15.55
2023-05-09T07:45:33.218Z,15.64
2023-05-09T07:48:03.683Z,15.68
2023-05-09T07:50:36.869Z,15.74
2023-05-09T07:53:07.747Z,15.85
2023-05-09T07:55:38.193Z,15.98
2023-05-09T07:58:08.516Z,15.96
2023-05-09T08:00:38.963Z,16.00
2023-05-09T08:03:09.464Z,16.07
2023-05-09T08:05:43.206Z,16.04
2023-05-09T08:08:13.572Z,16.14
2023-05-09T08:10:44.166Z,16.20
2023-05-09T08:13:14.643Z,16.23
2023-05-09T08:15:45.218Z,16.29
2023-05-09T08:18:16.041Z,16.35
2023-05-09T08:20:49.302Z,16.34
2023-05-09T08:23:19.634Z,16.42
2023-05-09T08:25:50.241Z,16.38
2023-05-09T08:28:22.312Z,16.38
2023-05-09T08:30:52.829Z,16.36
2023-05-09T08:33:23.305Z,16.46
2023-05-09T08:35:59.291Z,16.40
2023-05-09T08:38:29.671Z,16.47
2023-05-09T08:41:03.774Z,16.57
2023-05-09T08:43:36.850Z,16.62
2023-05-09T08:46:11.101Z,16.67
2023-05-09T08:48:42.337Z,16.76
2023-05-09T08:51:16.297Z,16.84
2023-05-09T08:53:47.263Z,16.82
2023-05-09T08:56:18.056Z,16.98
2023-05-09T08:58:48.997Z,17.02
2023-05-09T09:01:20.706Z,17.10
2023-05-09T09:03:52.339Z,17.14
2023-05-09T09:06:26.422Z,17.13
2023-05-09T09:08:58.967Z,17.10
2023-05-09T09:11:31.107Z,17.16
2023-05-09T09:14:05.758Z,17.18
2023-05-09T09:16:36.369Z,17.19
2023-05-09T09:19:13.305Z,17.34
2023-05-09T09:21:51.159Z,17.39
2023-05-09T09:24:26.334Z,17.41
2023-05-09T09:26:56.766Z,17.47
2023-05-09T09:29:28.900Z,17.52
2023-05-09T09:31:59.534Z,17.66
2023-05-09T09:34:29.923Z,17.68
2023-05-09T09:37:03.149Z,17.71
2023-05-09T09:39:33.692Z,17.86
2023-05-09T09:42:16.133Z,17.92
2023-05-09T09:44:46.628Z,17.95
2023-05-09T09:47:17.042Z,18.03
2023-05-09T09:49:50.340Z,18.10
2023-05-09T09:52:28.856Z,18.16
2023-05-09T09:54:59.482Z,18.34
2023-05-09T09:57:44.124Z,18.44
2023-05-09T10:00:36.731Z,18.41
2023-05-09T10:03:07.535Z,18.41
2023-05-09T10:05:41.121Z,18.46
2023-05-09T10:08:14.397Z,18.49
2023-05-09T10:10:45.756Z,18.49
2023-05-09T10:13:16.490Z,18.56
2023-05-09T10:15:53.654Z,18.66
2023-05-09T10:18:31.213Z,18.74
2023-05-09T10:21:05.343Z,18.79
2023-05-09T10:23:41.395Z,18.89
2023-05-09T10:26:21.204Z,18.96
2023-05-09T10:28:52.755Z,19.08
2023-05-09T10:31:29.362Z,19.18
2023-05-09T10:34:00.188Z,19.21
2023-05-09T10:36:34.020Z,19.24
2023-05-09T10:39:08.018Z,19.34
2023-05-09T10:41:39.841Z,19.46
2023-05-09T10:44:10.699Z,19.46
2023-05-09T10:46:42.016Z,19.52
2023-05-09T10:49:12.872Z,19.57
2023-05-09T10:51:43.321Z,19.76
2023-05-09T10:54:33.487Z,19.91
2023-05-09T10:57:05.767Z,19.91
2023-05-09T10:59:40.254Z,19.89
2023-05-09T11:02:17.602Z,19.85
2023-05-09T11:04:49.155Z,19.97
2023-05-09T11:07:30.329Z,20.08
2023-05-09T11:10:18.177Z,20.02
2023-05-09T11:12:59.753Z,20.13
2023-05-09T11:15:30.583Z,20.14
2023-05-09T11:18:13.171Z,20.16
2023-05-09T11:20:47.318Z,20.21
2023-05-09T11:23:20.386Z,20.28
2023-05-09T11:25:53.560Z,20.37
2023-05-09T11:28:31.695Z,20.55
2023-05-09T11:31:16.900Z,20.65
2023-05-09T11:33:49.654Z,20.82
2023-05-09T11:36:29.368Z,20.74
2023-05-09T11:39:10.274Z,20.79
2023-05-09T11:41:48.905Z,20.83
2023-05-09T11:44:21.082Z,20.84
2023-05-09T11:46:52.841Z,20.95
2023-05-09T11:49:23.232Z,21.05
2023-05-09T11:51:53.726Z,21.20
2023-05-09T11:54:27.408Z,21.33
2023-05-09T11:57:02.042Z,21.29
2023-05-09T11:59:32.408Z,21.41
2023-05-09T12:02:07.329Z,21.43
2023-05-09T12:04:39.158Z,21.54
2023-05-09T12:07:09.816Z,21.61
2023-05-09T12:09:40.926Z,21.77
2023-05-09T12:12:20.984Z,21.87
2023-05-09T12:14:52.139Z,22.07
2023-05-09T12:17:23.267Z,22.34
2023-05-09T12:19:56.168Z,22.55
2023-05-09T12:22:26.772Z,22.66
2023-05-09T12:24:57.236Z,22.98
2023-05-09T12:27:30.264Z,23.10
2023-05-09T12:30:00.943Z,23.11
2023-05-09T12:32:33.150Z,23.28
2023-05-09T12:35:04.030Z,23.31
2023-05-09T12:37:35.485Z,23.48
2023-05-09T12:40:08.652Z,23.47
2023-05-09T12:42:42.861Z,23.50
2023-05-09T12:45:15.161Z,23.60
2023-05-09T12:47:45.911Z,23.53
2023-05-09T12:50:16.405Z,23.47
2023-05-09T12:53:01.468Z,23.62
2023-05-09T12:55:34.418Z,23.67
2023-05-09T12:58:07.517Z,23.71
2023-05-09T13:00:47.171Z,23.77
2023-05-09T13:03:25.486Z,24.00
2023-05-09T13:06:00.399Z,23.92
2023-05-09T13:08:31.870Z,24.03
2023-05-09T13:11:14.971Z,24.11
2023-05-09T13:13:49.463Z,24.24
2023-05-09T13:16:19.877Z,24.43
2023-05-09T13:18:50.334Z,24.61
2023-05-09T13:21:21.342Z,24.63
2023-05-09T13:23:52.350Z,24.64
2023-05-09T13:26:23.136Z,24.71
2023-05-09T13:28:56.293Z,24.72
2023-05-09T13:31:26.684Z,24.68
2023-05-09T13:33:57.186Z,24.67
2023-05-09T13:36:27.546Z,24.48
2023-05-09T13:38:58.301Z,24.35
2023-05-09T13:41:30.953Z,24.20
2023-05-09T13:44:03.892Z,23.97
2023-05-09T13:46:34.461Z,23.77
2023-05-09T13:49:05.051Z,23.62
2023-05-09T13:51:35.451Z,23.52
2023-05-09T13:54:08.982Z,23.45
2023-05-09T13:56:39.566Z,23.36
2023-05-09T13:59:13.097Z,23.34
2023-05-09T14:01:43.632Z,23.38
2023-05-09T14:04:14.982Z,23.46
2023-05-09T14:06:48.370Z,23.39
2023-05-09T14:09:19.511Z,23.33
2023-05-09T14:11:51.731Z,23.37
2023-05-09T14:14:27.188Z,23.41
2023-05-09T14:16:59.296Z,23.34
2023-05-09T14:19:31.053Z,23.00
2023-05-09T14:22:01.573Z,22.91
2023-05-09T14:24:33.436Z,22.79
2023-05-09T14:27:03.978Z,22.80
2023-05-09T14:29:41.203Z,22.82
2023-05-09T14:32:13.153Z,22.86
2023-05-09T14:34:43.590Z,22.76
2023-05-09T14:37:16.380Z,22.69
2023-05-09T14:39:49.644Z,22.63
2023-05-09T14:42:20.225Z,22.62
2023-05-09T14:44:53.280Z,22.58
2023-05-09T14:47:23.774Z,22.44
2023-05-09T14:49:54.354Z,22.11
2023-05-09T14:52:24.951Z,22.06
2023-05-09T14:54:55.401Z,22.03
2023-05-09T14:57:25.773Z,22.00
2023-05-09T15:00:03.183Z,21.98
2023-05-09T15:02:39.582Z,21.88
2023-05-09T15:05:11.651Z,21.86
2023-05-09T15:07:42.097Z,21.89
2023-05-09T15:10:13.779Z,22.01
2023-05-09T15:12:44.546Z,22.13
2023-05-09T15:15:24.295Z,22.25
2023-05-09T15:17:55.594Z,22.31
2023-05-09T15:20:26.118Z,22.40
2023-05-09T15:22:56.604Z,22.43
2023-05-09T15:25:28.002Z,22.45
2023-05-09T15:27:59.515Z,22.47
2023-05-09T15:30:32.739Z,22.48
2023-05-09T15:33:03.134Z,22.48
2023-05-09T15:35:34.030Z,22.50
2023-05-09T15:38:04.417Z,22.54
2023-05-09T15:40:34.846Z,22.49
2023-05-09T15:43:08.365Z,22.49
2023-05-09T15:45:46.829Z,22.47
2023-05-09T15:48:17.952Z,22.43
2023-05-09T15:50:48.723Z,22.46
2023-05-09T15:53:19.211Z,22.39
2023-05-09T15:55:49.633Z,22.37
2023-05-09T15:58:19.971Z,22.31
2023-05-09T16:00:53.519Z,22.23
2023-05-09T16:03:25.229Z,22.18
2023-05-09T16:05:56.223Z,22.13
2023-05-09T16:08:26.742Z,22.10
2023-05-09T16:10:57.144Z,22.06
2023-05-09T16:13:27.649Z,21.95
2023-05-09T16:16:00.844Z,21.79
2023-05-09T16:18:31.681Z,21.74
2023-05-09T16:21:02.316Z,21.65
2023-05-09T16:23:33.100Z,21.61
2023-05-09T16:26:03.626Z,21.56
2023-05-09T16:28:33.966Z,21.47
2023-05-09T16:31:08.762Z,21.44
2023-05-09T16:33:39.116Z,21.40
2023-05-09T16:36:10.734Z,21.33
2023-05-09T16:38:41.317Z,21.24
2023-05-09T16:41:11.731Z,21.13
2023-05-09T16:43:43.114Z,21.03
2023-05-09T16:46:16.471Z,20.98
2023-05-09T16:48:47.430Z,20.93
2023-05-09T16:51:18.506Z,20.92
2023-05-09T16:53:49.262Z,20.89
2023-05-09T16:56:19.835Z,20.80
2023-05-09T16:58:50.478Z,20.77
2023-05-09T17:01:23.717Z,20.71
2023-05-09T17:03:54.277Z,20.67
2023-05-09T17:06:25.202Z,20.66
2023-05-09T17:08:55.955Z,20.67
2023-05-09T17:11:26.854Z,20.61
2023-05-09T17:13:57.602Z,20.58
2023-05-09T17:16:31.093Z,20.50
2023-05-09T17:19:01.843Z,20.45
2023-05-09T17:21:32.276Z,20.40
2023-05-09T17:24:03.175Z,20.34
2023-05-09T17:26:33.600Z,20.28
2023-05-09T17:29:04.029Z,20.31
2023-05-09T17:31:37.264Z,20.32
2023-05-09T17:34:07.669Z,20.30
2023-05-09T17:36:38.041Z,20.25
2023-05-09T17:39:08.557Z,20.21
2023-05-09T17:41:38.997Z,20.15
2023-05-09T17:44:09.487Z,20.10
2023-05-09T17:46:42.950Z,20.03
2023-05-09T17:49:14.302Z,19.66
2023-05-09T17:51:44.728Z,19.42
2023-05-09T17:54:16.017Z,19.29
2023-05-09T17:56:46.594Z,19.17
2023-05-09T17:59:16.974Z,19.17
2023-05-09T18:01:50.246Z,19.11
2023-05-09T18:04:21.120Z,19.05
2023-05-09T18:06:52.535Z,18.80
2023-05-09T18:09:23.150Z,18.67
2023-05-09T18:11:53.829Z,18.47
2023-05-09T18:14:24.298Z,18.43
2023-05-09T18:16:57.524Z,18.51
2023-05-09T18:19:28.245Z,18.53
2023-05-09T18:21:58.669Z,18.51
2023-05-09T18:24:29.081Z,18.49
2023-05-09T18:26:59.467Z,18.46
2023-05-09T18:29:29.942Z,18.43
2023-05-09T18:32:03.200Z,18.41
2023-05-09T18:34:33.743Z,18.43
2023-05-09T18:37:04.158Z,18.39
2023-05-09T18:39:34.708Z,18.36
2023-05-09T18:42:06.501Z,18.36
2023-05-09T18:44:38.886Z,18.36
2023-05-09T18:47:12.214Z,18.34
2023-05-09T18:49:42.696Z,18.34
2023-05-09T18:52:13.757Z,18.25
2023-05-09T18:54:44.457Z,18.18
2023-05-09T18:57:14.996Z,18.19
2023-05-09T18:59:45.988Z,18.12
2023-05-09T19:02:19.133Z,18.10
2023-05-09T19:04:50.770Z,18.08
2023-05-09T19:07:21.349Z,18.06
2023-05-09T19:09:52.400Z,18.04
2023-05-09T19:12:23.004Z,18.03
2023-05-09T19:14:53.767Z,17.99
2023-05-09T19:17:26.818Z,17.97
2023-05-09T19:19:57.493Z,17.94
2023-05-09T19:22:28.978Z,17.91
2023-05-09T19:25:01.011Z,17.90
2023-05-09T19:27:31.543Z,17.87
2023-05-09T19:30:02.109Z,17.86
2023-05-09T19:32:35.111Z,17.77
2023-05-09T19:35:05.596Z,17.76
2023-05-09T19:37:36.292Z,17.74
2023-05-09T19:40:08.239Z,17.70
2023-05-09T19:42:39.257Z,17.61
2023-05-09T19:45:11.225Z,17.55
2023-05-09T19:47:44.326Z,17.50
2023-05-09T19:50:15.070Z,17.45
2023-05-09T19:52:45.652Z,17.37
2023-05-09T19:55:16.442Z,17.24
2023-05-09T19:57:47.474Z,17.02
2023-05-09T20:00:19.103Z,16.92
2023-05-09T20:02:52.675Z,16.81
2023-05-09T20:05:23.420Z,16.72
2023-05-09T20:07:53.806Z,16.67
2023-05-09T20:10:24.608Z,16.56
2023-05-09T20:12:58.374Z,16.53
2023-05-09T20:15:29.010Z,16.46
2023-05-09T20:18:03.905Z,16.39
2023-05-09T20:20:34.501Z,16.33
2023-05-09T20:23:04.983Z,16.25
2023-05-09T20:25:35.352Z,16.26
2023-05-09T20:28:05.757Z,16.24
2023-05-09T20:30:36.177Z,16.30
2023-05-09T20:33:09.276Z,16.30
2023-05-09T20:35:39.989Z,16.37
2023-05-09T20:38:10.393Z,16.36
2023-05-09T20:40:41.285Z,16.30
2023-05-09T20:43:11.847Z,16.25
2023-05-09T20:45:43.110Z,16.13
2023-05-09T20:48:16.418Z,16.05
2023-05-09T20:50:46.985Z,15.95
2023-05-09T20:53:17.925Z,15.90
2023-05-09T20:55:50.477Z,15.85
2023-05-09T20:58:21.263Z,15.86
2023-05-09T21:00:51.854Z,15.87
2023-05-09T21:03:24.949Z,15.87
2023-05-09T21:05:55.480Z,15.82
2023-05-09T21:08:26.423Z,15.80
2023-05-09T21:10:56.820Z,15.76
2023-05-09T21:13:27.321Z,15.73
2023-05-09T21:15:57.898Z,15.68
2023-05-09T21:18:31.092Z,15.59
2023-05-09T21:21:04.586Z,15.54
2023-05-09T21:23:35.072Z,15.55
2023-05-09T21:26:05.522Z,15.53
2023-05-09T21:28:36.032Z,15.46
2023-05-09T21:33:39.761Z,15.37
2023-05-09T21:36:11.248Z,15.33
2023-05-09T21:38:41.769Z,15.32
2023-05-09T21:41:12.952Z,15.28
2023-05-09T21:43:43.361Z,15.22
2023-05-09T21:46:13.923Z,15.15
2023-05-09T21:48:46.987Z,15.10
2023-05-09T21:51:17.490Z,15.08
2023-05-09T21:53:47.979Z,15.05
2023-05-09T21:56:18.598Z,15.01
2023-05-09T21:58:49.040Z,15.02
2023-05-09T22:01:20.340Z,15.00
2023-05-09T22:03:53.789Z,15.04
2023-05-09T22:06:24.326Z,15.09
2023-05-09T22:08:54.798Z,15.09
2023-05-09T22:11:25.180Z,15.12
2023-05-09T22:13:55.554Z,15.12
2023-05-09T22:16:25.969Z,15.14
2023-05-09T22:18:59.405Z,15.17
2023-05-09T22:21:30.048Z,15.15
2023-05-09T22:24:00.853Z,15.14
2023-05-09T22:26:31.223Z,15.14
2023-05-09T22:29:01.668Z,15.11
2023-05-09T22:31:32.153Z,15.08
2023-05-09T22:34:05.366Z,15.07
2023-05-09T22:36:35.868Z,15.07
2023-05-09T22:39:06.569Z,15.03
2023-05-09T22:41:37.035Z,15.02
2023-05-09T22:44:08.115Z,15.09
2023-05-09T22:46:38.619Z,15.16
2023-05-09T22:49:12.112Z,15.12
2023-05-09T22:51:42.653Z,15.10
2023-05-09T22:54:13.197Z,15.07
2023-05-09T22:56:43.849Z,15.03
2023-05-09T22:59:14.473Z,15.01
2023-05-09T23:01:44.882Z,15.02
2023-05-09T23:04:18.280Z,14.88
2023-05-09T23:06:48.692Z,14.87
2023-05-09T23:09:19.237Z,14.82
2023-05-09T23:11:49.728Z,14.77
2023-05-09T23:14:20.104Z,14.74
2023-05-09T23:16:50.996Z,14.73
2023-05-09T23:19:23.968Z,14.67
2023-05-09T23:21:54.381Z,14.58
2023-05-09T23:24:25.002Z,14.54
2023-05-09T23:26:56.818Z,14.46
2023-05-09T23:29:28.266Z,14.43
2023-05-09T23:31:58.656Z,14.40
2023-05-09T23:34:31.837Z,14.36
2023-05-09T23:37:02.304Z,14.37
2023-05-09T23:39:32.776Z,14.32
2023-05-09T23:42:04.245Z,14.37
2023-05-09T23:44:34.609Z,14.35
2023-05-09T23:47:05.038Z,14.34
2023-05-09T23:49:37.976Z,14.38
2023-05-09T23:52:09.946Z,14.36
2023-05-09T23:54:40.626Z,14.36
2023-05-09T23:57:11.096Z,14.46
2023-05-09T23:59:42.279Z,14.53
